sensor_id;sensor_type;location;lat;lon;timestamp;temperature;humidity
10431;DHT22;5262;59.958;17.726;2023-11-19T00:00:27;-6.00;99.90
10431;DHT22;5262;59.958;17.726;2023-11-19T00:02:53;-6.00;99.90
10431;DHT22;5262;59.958;17.726;2023-11-19T00:05:18;-6.10;99.90
10431;DHT22;5262;59.958;17.726;2023-11-19T00:07:44;-6.20;99.90
10431;DHT22;5262;59.958;17.726;2023-11-19T00:10:13;-6.10;99.90
10431;DHT22;5262;59.958;17.726;2023-11-19T00:12:42;-6.10;99.90
10431;DHT22;5262;59.958;17.726;2023-11-19T00:15:08;-6.00;99.90
10431;DHT22;5262;59.958;17.726;2023-11-19T00:17:41;-6.00;99.90
10431;DHT22;5262;59.958;17.726;2023-11-19T00:20:11;-5.90;99.90
10431;DHT22;5262;59.958;17.726;2023-11-19T00:22:36;-6.10;99.90
10431;DHT22;5262;59.958;17.726;2023-11-19T00:25:02;-6.00;99.90
10431;DHT22;5262;59.958;17.726;2023-11-19T00:27:29;-6.10;99.90
10431;DHT22;5262;59.958;17.726;2023-11-19T00:29:54;-6.00;99.90
10431;DHT22;5262;59.958;17.726;2023-11-19T00:32:20;-6.10;99.90
10431;DHT22;5262;59.958;17.726;2023-11-19T00:34:45;-6.00;99.90
10431;DHT22;5262;59.958;17.726;2023-11-19T00:37:13;-6.10;99.90
10431;DHT22;5262;59.958;17.726;2023-11-19T00:39:39;-6.10;99.90
10431;DHT22;5262;59.958;17.726;2023-11-19T00:42:04;-6.10;99.90
10431;DHT22;5262;59.958;17.726;2023-11-19T00:44:30;-6.10;99.90
10431;DHT22;5262;59.958;17.726;2023-11-19T00:46:56;-6.20;99.90
10431;DHT22;5262;59.958;17.726;2023-11-19T00:49:22;-6.10;99.90
10431;DHT22;5262;59.958;17.726;2023-11-19T00:51:47;-6.10;99.90
10431;DHT22;5262;59.958;17.726;2023-11-19T00:54:13;-6.00;99.90
10431;DHT22;5262;59.958;17.726;2023-11-19T00:56:38;-6.00;99.90
10431;DHT22;5262;59.958;17.726;2023-11-19T00:59:05;-6.20;99.90
10431;DHT22;5262;59.958;17.726;2023-11-19T01:01:30;-6.10;99.90
10431;DHT22;5262;59.958;17.726;2023-11-19T01:03:56;-6.00;99.90
10431;DHT22;5262;59.958;17.726;2023-11-19T01:06:29;-6.00;99.90
10431;DHT22;5262;59.958;17.726;2023-11-19T01:08:55;-6.00;99.90
10431;DHT22;5262;59.958;17.726;2023-11-19T01:11:22;-5.90;99.90
10431;DHT22;5262;59.958;17.726;2023-11-19T01:13:49;-5.80;99.90
10431;DHT22;5262;59.958;17.726;2023-11-19T01:16:15;-5.90;99.90
10431;DHT22;5262;59.958;17.726;2023-11-19T01:18:41;-5.90;99.90
10431;DHT22;5262;59.958;17.726;2023-11-19T01:21:07;-6.00;99.90
10431;DHT22;5262;59.958;17.726;2023-11-19T01:23:32;-5.90;99.90
10431;DHT22;5262;59.958;17.726;2023-11-19T01:25:59;-5.90;99.90
10431;DHT22;5262;59.958;17.726;2023-11-19T01:28:25;-5.90;99.90
10431;DHT22;5262;59.958;17.726;2023-11-19T01:30:51;-5.90;99.90
10431;DHT22;5262;59.958;17.726;2023-11-19T01:33:17;-6.00;99.90
10431;DHT22;5262;59.958;17.726;2023-11-19T01:35:42;-5.90;99.90
10431;DHT22;5262;59.958;17.726;2023-11-19T01:38:08;-6.00;99.90
10431;DHT22;5262;59.958;17.726;2023-11-19T01:40:34;-5.90;99.90
10431;DHT22;5262;59.958;17.726;2023-11-19T01:43:02;-5.90;99.90
10431;DHT22;5262;59.958;17.726;2023-11-19T01:45:30;-5.80;99.90
10431;DHT22;5262;59.958;17.726;2023-11-19T01:48:01;-5.80;99.90
10431;DHT22;5262;59.958;17.726;2023-11-19T01:50:29;-5.80;99.90
10431;DHT22;5262;59.958;17.726;2023-11-19T01:52:55;-5.80;99.90
10431;DHT22;5262;59.958;17.726;2023-11-19T01:55:26;-5.80;99.90
10431;DHT22;5262;59.958;17.726;2023-11-19T01:57:55;-5.80;99.90
10431;DHT22;5262;59.958;17.726;2023-11-19T02:00:23;-5.80;99.90
10431;DHT22;5262;59.958;17.726;2023-11-19T02:02:50;-5.80;99.90
10431;DHT22;5262;59.958;17.726;2023-11-19T02:05:17;-5.90;99.90
10431;DHT22;5262;59.958;17.726;2023-11-19T02:07:43;-5.90;99.90
10431;DHT22;5262;59.958;17.726;2023-11-19T02:10:09;-6.00;99.90
10431;DHT22;5262;59.958;17.726;2023-11-19T02:12:40;-5.90;99.90
10431;DHT22;5262;59.958;17.726;2023-11-19T02:15:09;-6.00;99.90
10431;DHT22;5262;59.958;17.726;2023-11-19T02:17:35;-6.00;99.90
10431;DHT22;5262;59.958;17.726;2023-11-19T02:20:06;-6.00;99.90
10431;DHT22;5262;59.958;17.726;2023-11-19T02:22:37;-6.00;99.90
10431;DHT22;5262;59.958;17.726;2023-11-19T02:25:17;-6.00;99.90
10431;DHT22;5262;59.958;17.726;2023-11-19T02:27:51;-6.00;99.90
10431;DHT22;5262;59.958;17.726;2023-11-19T02:30:21;-6.10;99.90
10431;DHT22;5262;59.958;17.726;2023-11-19T02:32:55;-6.10;99.90
10431;DHT22;5262;59.958;17.726;2023-11-19T02:35:27;-6.10;99.90
10431;DHT22;5262;59.958;17.726;2023-11-19T02:37:56;-6.10;99.90
10431;DHT22;5262;59.958;17.726;2023-11-19T02:40:22;-6.10;99.90
10431;DHT22;5262;59.958;17.726;2023-11-19T02:42:48;-6.10;99.90
10431;DHT22;5262;59.958;17.726;2023-11-19T02:45:14;-6.00;99.90
10431;DHT22;5262;59.958;17.726;2023-11-19T02:47:41;-6.00;99.90
10431;DHT22;5262;59.958;17.726;2023-11-19T02:50:08;-5.90;99.90
10431;DHT22;5262;59.958;17.726;2023-11-19T02:52:43;-5.90;99.90
10431;DHT22;5262;59.958;17.726;2023-11-19T02:55:10;-5.80;99.90
10431;DHT22;5262;59.958;17.726;2023-11-19T02:57:38;-5.90;99.90
10431;DHT22;5262;59.958;17.726;2023-11-19T03:00:13;-6.00;99.90
10431;DHT22;5262;59.958;17.726;2023-11-19T03:02:40;-5.90;99.90
10431;DHT22;5262;59.958;17.726;2023-11-19T03:05:14;-5.90;99.90
10431;DHT22;5262;59.958;17.726;2023-11-19T03:07:43;-5.80;99.90
10431;DHT22;5262;59.958;17.726;2023-11-19T03:10:12;-5.80;99.90
10431;DHT22;5262;59.958;17.726;2023-11-19T03:12:43;-5.80;99.90
10431;DHT22;5262;59.958;17.726;2023-11-19T03:15:09;-5.90;99.90
10431;DHT22;5262;59.958;17.726;2023-11-19T03:17:42;-5.90;99.90
10431;DHT22;5262;59.958;17.726;2023-11-19T03:20:11;-5.90;99.90
10431;DHT22;5262;59.958;17.726;2023-11-19T03:22:41;-5.90;99.90
10431;DHT22;5262;59.958;17.726;2023-11-19T03:25:10;-5.90;99.90
10431;DHT22;5262;59.958;17.726;2023-11-19T03:27:36;-5.90;99.90
10431;DHT22;5262;59.958;17.726;2023-11-19T03:30:04;-5.90;99.90
10431;DHT22;5262;59.958;17.726;2023-11-19T03:32:31;-5.80;99.90
10431;DHT22;5262;59.958;17.726;2023-11-19T03:34:57;-5.90;99.90
10431;DHT22;5262;59.958;17.726;2023-11-19T03:37:23;-5.90;99.90
10431;DHT22;5262;59.958;17.726;2023-11-19T03:39:49;-5.90;99.90
10431;DHT22;5262;59.958;17.726;2023-11-19T03:42:15;-6.00;99.90
10431;DHT22;5262;59.958;17.726;2023-11-19T03:44:40;-5.90;99.90
10431;DHT22;5262;59.958;17.726;2023-11-19T03:47:06;-5.90;99.90
10431;DHT22;5262;59.958;17.726;2023-11-19T03:49:31;-5.90;99.90
10431;DHT22;5262;59.958;17.726;2023-11-19T03:51:57;-5.90;99.90
10431;DHT22;5262;59.958;17.726;2023-11-19T03:54:23;-5.90;99.90
10431;DHT22;5262;59.958;17.726;2023-11-19T03:56:49;-5.90;99.90
10431;DHT22;5262;59.958;17.726;2023-11-19T03:59:14;-5.80;99.90
10431;DHT22;5262;59.958;17.726;2023-11-19T04:01:41;-5.80;99.90
10431;DHT22;5262;59.958;17.726;2023-11-19T04:04:06;-5.80;99.90
10431;DHT22;5262;59.958;17.726;2023-11-19T04:06:32;-5.80;99.90
10431;DHT22;5262;59.958;17.726;2023-11-19T04:08:57;-5.70;99.90
10431;DHT22;5262;59.958;17.726;2023-11-19T04:11:23;-5.70;99.90
10431;DHT22;5262;59.958;17.726;2023-11-19T04:13:50;-5.70;99.90
10431;DHT22;5262;59.958;17.726;2023-11-19T04:16:16;-5.70;99.90
10431;DHT22;5262;59.958;17.726;2023-11-19T04:18:42;-5.60;99.90
10431;DHT22;5262;59.958;17.726;2023-11-19T04:21:07;-5.60;99.90
10431;DHT22;5262;59.958;17.726;2023-11-19T04:23:33;-5.60;99.90
10431;DHT22;5262;59.958;17.726;2023-11-19T04:26:02;-5.70;99.90
10431;DHT22;5262;59.958;17.726;2023-11-19T04:28:29;-5.70;99.90
10431;DHT22;5262;59.958;17.726;2023-11-19T04:30:55;-5.70;99.90
10431;DHT22;5262;59.958;17.726;2023-11-19T04:33:21;-5.70;99.90
10431;DHT22;5262;59.958;17.726;2023-11-19T04:35:47;-5.70;99.90
10431;DHT22;5262;59.958;17.726;2023-11-19T04:38:12;-5.70;99.90
10431;DHT22;5262;59.958;17.726;2023-11-19T04:40:38;-5.70;99.90
10431;DHT22;5262;59.958;17.726;2023-11-19T04:43:03;-5.70;99.90
10431;DHT22;5262;59.958;17.726;2023-11-19T04:45:29;-5.70;99.90
10431;DHT22;5262;59.958;17.726;2023-11-19T04:47:55;-5.70;99.90
10431;DHT22;5262;59.958;17.726;2023-11-19T04:50:21;-5.70;99.90
10431;DHT22;5262;59.958;17.726;2023-11-19T04:52:47;-5.70;99.90
10431;DHT22;5262;59.958;17.726;2023-11-19T04:55:13;-5.70;99.90
10431;DHT22;5262;59.958;17.726;2023-11-19T04:57:40;-5.70;99.90
10431;DHT22;5262;59.958;17.726;2023-11-19T05:00:06;-5.80;99.90
10431;DHT22;5262;59.958;17.726;2023-11-19T05:02:34;-5.90;99.90
10431;DHT22;5262;59.958;17.726;2023-11-19T05:05:00;-5.80;99.90
10431;DHT22;5262;59.958;17.726;2023-11-19T05:07:25;-5.80;99.90
10431;DHT22;5262;59.958;17.726;2023-11-19T05:09:52;-5.80;99.90
10431;DHT22;5262;59.958;17.726;2023-11-19T05:12:17;-5.80;99.90
10431;DHT22;5262;59.958;17.726;2023-11-19T05:14:43;-5.80;99.90
10431;DHT22;5262;59.958;17.726;2023-11-19T05:17:15;-5.80;99.90
10431;DHT22;5262;59.958;17.726;2023-11-19T05:19:40;-5.90;99.90
10431;DHT22;5262;59.958;17.726;2023-11-19T05:22:06;-6.10;99.90
10431;DHT22;5262;59.958;17.726;2023-11-19T05:24:31;-6.10;99.90
10431;DHT22;5262;59.958;17.726;2023-11-19T05:26:57;-6.30;99.90
10431;DHT22;5262;59.958;17.726;2023-11-19T05:29:23;-6.20;99.90
10431;DHT22;5262;59.958;17.726;2023-11-19T05:31:49;-6.20;99.90
10431;DHT22;5262;59.958;17.726;2023-11-19T05:34:15;-6.10;99.90
10431;DHT22;5262;59.958;17.726;2023-11-19T05:36:41;-6.00;99.90
10431;DHT22;5262;59.958;17.726;2023-11-19T05:39:06;-6.00;99.90
10431;DHT22;5262;59.958;17.726;2023-11-19T05:41:32;-6.10;99.90
10431;DHT22;5262;59.958;17.726;2023-11-19T05:43:58;-6.10;99.90
10431;DHT22;5262;59.958;17.726;2023-11-19T05:46:23;-5.90;99.90
10431;DHT22;5262;59.958;17.726;2023-11-19T05:48:51;-5.90;99.90
10431;DHT22;5262;59.958;17.726;2023-11-19T05:51:16;-5.90;99.90
10431;DHT22;5262;59.958;17.726;2023-11-19T05:53:42;-5.90;99.90
10431;DHT22;5262;59.958;17.726;2023-11-19T05:56:09;-5.90;99.90
10431;DHT22;5262;59.958;17.726;2023-11-19T05:58:35;-5.90;99.90
10431;DHT22;5262;59.958;17.726;2023-11-19T06:01:01;-5.90;99.90
10431;DHT22;5262;59.958;17.726;2023-11-19T06:03:28;-5.90;99.90
10431;DHT22;5262;59.958;17.726;2023-11-19T06:05:53;-5.90;99.90
10431;DHT22;5262;59.958;17.726;2023-11-19T06:08:20;-5.80;99.90
10431;DHT22;5262;59.958;17.726;2023-11-19T06:10:46;-5.80;99.90
10431;DHT22;5262;59.958;17.726;2023-11-19T06:13:15;-5.80;99.90
10431;DHT22;5262;59.958;17.726;2023-11-19T06:15:44;-5.80;99.90
10431;DHT22;5262;59.958;17.726;2023-11-19T06:18:10;-5.70;99.90
10431;DHT22;5262;59.958;17.726;2023-11-19T06:20:37;-5.70;99.90
10431;DHT22;5262;59.958;17.726;2023-11-19T06:23:03;-5.70;99.90
10431;DHT22;5262;59.958;17.726;2023-11-19T06:25:28;-5.70;99.90
10431;DHT22;5262;59.958;17.726;2023-11-19T06:27:54;-5.70;99.90
10431;DHT22;5262;59.958;17.726;2023-11-19T06:30:20;-5.70;99.90
10431;DHT22;5262;59.958;17.726;2023-11-19T06:32:46;-5.70;99.90
10431;DHT22;5262;59.958;17.726;2023-11-19T06:35:12;-5.70;99.90
10431;DHT22;5262;59.958;17.726;2023-11-19T06:37:40;-5.70;99.90
10431;DHT22;5262;59.958;17.726;2023-11-19T06:40:06;-5.70;99.90
10431;DHT22;5262;59.958;17.726;2023-11-19T06:42:34;-5.70;99.90
10431;DHT22;5262;59.958;17.726;2023-11-19T06:45:00;-5.70;99.90
10431;DHT22;5262;59.958;17.726;2023-11-19T06:47:27;-5.60;99.90
10431;DHT22;5262;59.958;17.726;2023-11-19T06:49:53;-5.70;99.90
10431;DHT22;5262;59.958;17.726;2023-11-19T06:52:19;-5.70;99.90
10431;DHT22;5262;59.958;17.726;2023-11-19T06:54:45;-5.80;99.90
10431;DHT22;5262;59.958;17.726;2023-11-19T06:57:11;-5.80;99.90
10431;DHT22;5262;59.958;17.726;2023-11-19T06:59:37;-5.80;99.90
10431;DHT22;5262;59.958;17.726;2023-11-19T07:02:03;-5.70;99.90
10431;DHT22;5262;59.958;17.726;2023-11-19T07:04:30;-5.60;99.90
10431;DHT22;5262;59.958;17.726;2023-11-19T07:06:56;-5.60;99.90
10431;DHT22;5262;59.958;17.726;2023-11-19T07:09:21;-5.60;99.90
10431;DHT22;5262;59.958;17.726;2023-11-19T07:11:49;-5.60;99.90
10431;DHT22;5262;59.958;17.726;2023-11-19T07:14:17;-5.60;99.90
10431;DHT22;5262;59.958;17.726;2023-11-19T07:16:43;-5.70;99.90
10431;DHT22;5262;59.958;17.726;2023-11-19T07:19:09;-5.70;99.90
10431;DHT22;5262;59.958;17.726;2023-11-19T07:21:35;-5.60;99.90
10431;DHT22;5262;59.958;17.726;2023-11-19T07:24:06;-5.60;99.90
10431;DHT22;5262;59.958;17.726;2023-11-19T07:26:32;-5.60;99.90
10431;DHT22;5262;59.958;17.726;2023-11-19T07:28:58;-5.70;99.90
10431;DHT22;5262;59.958;17.726;2023-11-19T07:31:24;-5.70;99.90
10431;DHT22;5262;59.958;17.726;2023-11-19T07:33:50;-5.60;99.90
10431;DHT22;5262;59.958;17.726;2023-11-19T07:36:15;-5.50;99.90
10431;DHT22;5262;59.958;17.726;2023-11-19T07:38:41;-5.50;99.90
10431;DHT22;5262;59.958;17.726;2023-11-19T07:41:08;-5.50;99.90
10431;DHT22;5262;59.958;17.726;2023-11-19T07:43:42;-5.50;99.90
10431;DHT22;5262;59.958;17.726;2023-11-19T07:46:13;-5.60;99.90
10431;DHT22;5262;59.958;17.726;2023-11-19T07:48:40;-5.60;99.90
10431;DHT22;5262;59.958;17.726;2023-11-19T07:51:06;-5.70;99.90
10431;DHT22;5262;59.958;17.726;2023-11-19T07:53:32;-5.60;99.90
10431;DHT22;5262;59.958;17.726;2023-11-19T07:55:58;-5.50;99.90
10431;DHT22;5262;59.958;17.726;2023-11-19T07:58:27;-5.60;99.90
10431;DHT22;5262;59.958;17.726;2023-11-19T08:00:52;-5.70;99.90
10431;DHT22;5262;59.958;17.726;2023-11-19T08:03:18;-5.70;99.90
10431;DHT22;5262;59.958;17.726;2023-11-19T08:05:49;-5.60;99.90
10431;DHT22;5262;59.958;17.726;2023-11-19T08:08:16;-5.40;99.90
10431;DHT22;5262;59.958;17.726;2023-11-19T08:10:42;-5.50;99.90
10431;DHT22;5262;59.958;17.726;2023-11-19T08:13:10;-5.60;99.90
10431;DHT22;5262;59.958;17.726;2023-11-19T08:15:36;-5.60;99.90
10431;DHT22;5262;59.958;17.726;2023-11-19T08:18:01;-5.60;99.90
10431;DHT22;5262;59.958;17.726;2023-11-19T08:20:27;-5.50;99.90
10431;DHT22;5262;59.958;17.726;2023-11-19T08:22:53;-5.60;99.90
10431;DHT22;5262;59.958;17.726;2023-11-19T08:25:19;-5.60;99.90
10431;DHT22;5262;59.958;17.726;2023-11-19T08:27:44;-5.50;99.90
10431;DHT22;5262;59.958;17.726;2023-11-19T08:30:11;-5.40;99.90
10431;DHT22;5262;59.958;17.726;2023-11-19T08:32:37;-5.40;99.90
10431;DHT22;5262;59.958;17.726;2023-11-19T08:35:02;-5.40;99.90
10431;DHT22;5262;59.958;17.726;2023-11-19T08:37:28;-5.40;99.90
10431;DHT22;5262;59.958;17.726;2023-11-19T08:39:54;-5.40;99.90
10431;DHT22;5262;59.958;17.726;2023-11-19T08:42:19;-5.40;99.90
10431;DHT22;5262;59.958;17.726;2023-11-19T08:44:50;-5.40;99.90
10431;DHT22;5262;59.958;17.726;2023-11-19T08:47:16;-5.30;99.90
10431;DHT22;5262;59.958;17.726;2023-11-19T08:49:45;-5.20;99.90
10431;DHT22;5262;59.958;17.726;2023-11-19T08:52:11;-5.30;99.90
10431;DHT22;5262;59.958;17.726;2023-11-19T08:54:37;-5.30;99.90
10431;DHT22;5262;59.958;17.726;2023-11-19T08:57:03;-5.20;99.90
10431;DHT22;5262;59.958;17.726;2023-11-19T08:59:30;-5.10;99.90
10431;DHT22;5262;59.958;17.726;2023-11-19T09:01:55;-5.10;99.90
10431;DHT22;5262;59.958;17.726;2023-11-19T09:04:21;-5.20;99.90
10431;DHT22;5262;59.958;17.726;2023-11-19T09:06:48;-5.30;99.90
10431;DHT22;5262;59.958;17.726;2023-11-19T09:09:14;-5.30;99.90
10431;DHT22;5262;59.958;17.726;2023-11-19T09:11:40;-5.40;99.90
10431;DHT22;5262;59.958;17.726;2023-11-19T09:14:06;-5.40;99.90
10431;DHT22;5262;59.958;17.726;2023-11-19T09:16:32;-5.20;99.90
10431;DHT22;5262;59.958;17.726;2023-11-19T09:18:58;-5.20;99.90
10431;DHT22;5262;59.958;17.726;2023-11-19T09:21:26;-5.10;99.90
10431;DHT22;5262;59.958;17.726;2023-11-19T09:23:51;-5.10;99.90
10431;DHT22;5262;59.958;17.726;2023-11-19T09:26:18;-5.10;99.90
10431;DHT22;5262;59.958;17.726;2023-11-19T09:28:44;-5.20;99.90
10431;DHT22;5262;59.958;17.726;2023-11-19T09:31:13;-5.20;99.90
10431;DHT22;5262;59.958;17.726;2023-11-19T09:33:39;-5.40;99.90
10431;DHT22;5262;59.958;17.726;2023-11-19T09:36:05;-5.30;99.90
10431;DHT22;5262;59.958;17.726;2023-11-19T09:38:31;-5.20;99.90
10431;DHT22;5262;59.958;17.726;2023-11-19T09:40:58;-5.20;99.90
10431;DHT22;5262;59.958;17.726;2023-11-19T09:43:26;-5.10;99.90
10431;DHT22;5262;59.958;17.726;2023-11-19T09:45:54;-5.10;99.90
10431;DHT22;5262;59.958;17.726;2023-11-19T09:48:21;-5.20;99.90
10431;DHT22;5262;59.958;17.726;2023-11-19T09:50:50;-5.10;99.90
10431;DHT22;5262;59.958;17.726;2023-11-19T09:53:17;-5.10;99.90
10431;DHT22;5262;59.958;17.726;2023-11-19T09:55:43;-5.20;99.90
10431;DHT22;5262;59.958;17.726;2023-11-19T09:58:11;-5.20;99.90
10431;DHT22;5262;59.958;17.726;2023-11-19T10:00:37;-5.20;99.90
10431;DHT22;5262;59.958;17.726;2023-11-19T10:03:04;-5.30;99.90
10431;DHT22;5262;59.958;17.726;2023-11-19T10:05:32;-5.30;99.90
10431;DHT22;5262;59.958;17.726;2023-11-19T10:07:58;-5.30;99.90
10431;DHT22;5262;59.958;17.726;2023-11-19T10:10:24;-5.30;99.90
10431;DHT22;5262;59.958;17.726;2023-11-19T10:12:53;-5.30;99.90
10431;DHT22;5262;59.958;17.726;2023-11-19T10:15:24;-5.40;99.90
10431;DHT22;5262;59.958;17.726;2023-11-19T10:17:50;-5.30;99.90
10431;DHT22;5262;59.958;17.726;2023-11-19T10:20:17;-5.30;99.90
10431;DHT22;5262;59.958;17.726;2023-11-19T10:22:42;-5.30;99.90
10431;DHT22;5262;59.958;17.726;2023-11-19T10:25:40;-5.30;99.90
10431;DHT22;5262;59.958;17.726;2023-11-19T10:28:06;-5.20;99.90
10431;DHT22;5262;59.958;17.726;2023-11-19T10:30:32;-5.20;99.90
10431;DHT22;5262;59.958;17.726;2023-11-19T10:35:27;-5.30;99.90
10431;DHT22;5262;59.958;17.726;2023-11-19T10:37:53;-5.30;99.90
10431;DHT22;5262;59.958;17.726;2023-11-19T10:40:19;-5.30;99.90
10431;DHT22;5262;59.958;17.726;2023-11-19T10:42:44;-5.30;99.90
10431;DHT22;5262;59.958;17.726;2023-11-19T10:45:23;-5.30;99.90
10431;DHT22;5262;59.958;17.726;2023-11-19T10:47:52;-5.30;99.90
10431;DHT22;5262;59.958;17.726;2023-11-19T10:50:19;-5.40;99.90
10431;DHT22;5262;59.958;17.726;2023-11-19T10:52:46;-5.40;99.90
10431;DHT22;5262;59.958;17.726;2023-11-19T10:55:15;-5.30;99.90
10431;DHT22;5262;59.958;17.726;2023-11-19T10:57:47;-5.30;99.90
10431;DHT22;5262;59.958;17.726;2023-11-19T11:00:18;-5.30;99.90
10431;DHT22;5262;59.958;17.726;2023-11-19T11:02:50;-5.20;99.90
10431;DHT22;5262;59.958;17.726;2023-11-19T11:05:19;-5.30;99.90
10431;DHT22;5262;59.958;17.726;2023-11-19T11:07:55;-5.20;99.90
10431;DHT22;5262;59.958;17.726;2023-11-19T11:10:25;-5.30;99.90
10431;DHT22;5262;59.958;17.726;2023-11-19T11:12:52;-5.30;99.90
10431;DHT22;5262;59.958;17.726;2023-11-19T11:15:26;-5.20;99.90
10431;DHT22;5262;59.958;17.726;2023-11-19T11:17:57;-5.20;99.90
10431;DHT22;5262;59.958;17.726;2023-11-19T11:20:25;-5.30;99.90
10431;DHT22;5262;59.958;17.726;2023-11-19T11:29:04;-5.60;99.90
10431;DHT22;5262;59.958;17.726;2023-11-19T11:37:16;-5.70;99.90
10431;DHT22;5262;59.958;17.726;2023-11-19T11:39:43;-5.60;99.90
10431;DHT22;5262;59.958;17.726;2023-11-19T11:45:08;-5.60;99.90
10431;DHT22;5262;59.958;17.726;2023-11-19T11:50:17;-5.50;99.90
10431;DHT22;5262;59.958;17.726;2023-11-19T11:55:36;-5.60;99.90
10431;DHT22;5262;59.958;17.726;2023-11-19T11:58:03;-5.60;99.90
10431;DHT22;5262;59.958;17.726;2023-11-19T12:00:37;-5.40;99.90
10431;DHT22;5262;59.958;17.726;2023-11-19T12:03:04;-5.50;99.90
10431;DHT22;5262;59.958;17.726;2023-11-19T12:05:30;-5.70;99.90
10431;DHT22;5262;59.958;17.726;2023-11-19T12:08:02;-5.60;99.90
10431;DHT22;5262;59.958;17.726;2023-11-19T12:10:30;-5.50;99.90
10431;DHT22;5262;59.958;17.726;2023-11-19T12:13:01;-5.50;99.90
10431;DHT22;5262;59.958;17.726;2023-11-19T12:15:27;-5.40;99.90
10431;DHT22;5262;59.958;17.726;2023-11-19T12:17:54;-5.50;99.90
10431;DHT22;5262;59.958;17.726;2023-11-19T12:20:22;-5.60;99.90
10431;DHT22;5262;59.958;17.726;2023-11-19T12:22:48;-5.80;99.90
10431;DHT22;5262;59.958;17.726;2023-11-19T12:25:16;-5.80;99.90
10431;DHT22;5262;59.958;17.726;2023-11-19T12:27:52;-5.70;99.90
10431;DHT22;5262;59.958;17.726;2023-11-19T12:30:22;-5.60;99.90
10431;DHT22;5262;59.958;17.726;2023-11-19T12:32:49;-5.60;99.90
10431;DHT22;5262;59.958;17.726;2023-11-19T12:35:18;-5.50;99.90
10431;DHT22;5262;59.958;17.726;2023-11-19T12:37:47;-5.50;99.90
10431;DHT22;5262;59.958;17.726;2023-11-19T12:40:21;-5.60;99.90
10431;DHT22;5262;59.958;17.726;2023-11-19T12:42:48;-5.70;99.90
10431;DHT22;5262;59.958;17.726;2023-11-19T12:45:14;-5.70;99.90
10431;DHT22;5262;59.958;17.726;2023-11-19T12:47:45;-5.60;99.90
10431;DHT22;5262;59.958;17.726;2023-11-19T12:50:13;-5.60;99.90
10431;DHT22;5262;59.958;17.726;2023-11-19T12:52:39;-5.60;99.90
10431;DHT22;5262;59.958;17.726;2023-11-19T12:55:28;-5.60;99.90
10431;DHT22;5262;59.958;17.726;2023-11-19T12:57:53;-5.70;99.90
10431;DHT22;5262;59.958;17.726;2023-11-19T13:00:24;-5.70;99.90
10431;DHT22;5262;59.958;17.726;2023-11-19T13:02:55;-5.80;99.90
10431;DHT22;5262;59.958;17.726;2023-11-19T13:05:29;-5.90;99.90
10431;DHT22;5262;59.958;17.726;2023-11-19T13:08:08;-5.90;99.90
10431;DHT22;5262;59.958;17.726;2023-11-19T13:10:49;-5.80;99.90
10431;DHT22;5262;59.958;17.726;2023-11-19T13:13:16;-5.90;99.90
10431;DHT22;5262;59.958;17.726;2023-11-19T13:15:42;-5.80;99.90
10431;DHT22;5262;59.958;17.726;2023-11-19T13:18:10;-5.80;99.90
10431;DHT22;5262;59.958;17.726;2023-11-19T13:20:36;-5.70;99.90
10431;DHT22;5262;59.958;17.726;2023-11-19T13:23:03;-5.70;99.90
10431;DHT22;5262;59.958;17.726;2023-11-19T13:25:29;-5.80;99.90
10431;DHT22;5262;59.958;17.726;2023-11-19T13:27:56;-5.70;99.90
10431;DHT22;5262;59.958;17.726;2023-11-19T13:30:22;-5.60;99.90
10431;DHT22;5262;59.958;17.726;2023-11-19T13:32:49;-5.60;99.90
10431;DHT22;5262;59.958;17.726;2023-11-19T13:35:15;-5.60;99.90
10431;DHT22;5262;59.958;17.726;2023-11-19T13:37:41;-5.70;99.90
10431;DHT22;5262;59.958;17.726;2023-11-19T13:40:07;-5.70;99.90
10431;DHT22;5262;59.958;17.726;2023-11-19T13:42:38;-5.70;99.90
10431;DHT22;5262;59.958;17.726;2023-11-19T13:45:11;-5.70;99.90
10431;DHT22;5262;59.958;17.726;2023-11-19T13:47:42;-5.70;99.90
10431;DHT22;5262;59.958;17.726;2023-11-19T13:50:16;-5.50;99.90
10431;DHT22;5262;59.958;17.726;2023-11-19T13:52:46;-5.50;99.90
10431;DHT22;5262;59.958;17.726;2023-11-19T13:55:13;-5.50;99.90
10431;DHT22;5262;59.958;17.726;2023-11-19T13:57:40;-5.50;99.90
10431;DHT22;5262;59.958;17.726;2023-11-19T14:00:08;-5.30;99.90
10431;DHT22;5262;59.958;17.726;2023-11-19T14:02:42;-5.50;99.90
10431;DHT22;5262;59.958;17.726;2023-11-19T14:05:09;-5.40;99.90
10431;DHT22;5262;59.958;17.726;2023-11-19T14:07:37;-5.40;99.90
10431;DHT22;5262;59.958;17.726;2023-11-19T14:10:03;-5.40;99.90
10431;DHT22;5262;59.958;17.726;2023-11-19T14:12:30;-5.40;99.90
10431;DHT22;5262;59.958;17.726;2023-11-19T14:14:56;-5.50;99.90
10431;DHT22;5262;59.958;17.726;2023-11-19T14:17:23;-5.40;99.90
10431;DHT22;5262;59.958;17.726;2023-11-19T14:19:50;-5.50;99.90
10431;DHT22;5262;59.958;17.726;2023-11-19T14:22:16;-5.40;99.90
10431;DHT22;5262;59.958;17.726;2023-11-19T14:24:45;-5.50;99.90
10431;DHT22;5262;59.958;17.726;2023-11-19T14:27:11;-5.50;99.90
10431;DHT22;5262;59.958;17.726;2023-11-19T14:29:37;-5.50;99.90
10431;DHT22;5262;59.958;17.726;2023-11-19T14:32:03;-5.50;99.90
10431;DHT22;5262;59.958;17.726;2023-11-19T14:34:32;-5.40;99.90
10431;DHT22;5262;59.958;17.726;2023-11-19T14:36:59;-5.40;99.90
10431;DHT22;5262;59.958;17.726;2023-11-19T14:39:26;-5.40;99.90
10431;DHT22;5262;59.958;17.726;2023-11-19T14:41:51;-5.30;99.90
10431;DHT22;5262;59.958;17.726;2023-11-19T14:44:18;-5.30;99.90
10431;DHT22;5262;59.958;17.726;2023-11-19T14:46:46;-5.40;99.90
10431;DHT22;5262;59.958;17.726;2023-11-19T14:49:12;-5.40;99.90
10431;DHT22;5262;59.958;17.726;2023-11-19T14:51:39;-5.40;99.90
10431;DHT22;5262;59.958;17.726;2023-11-19T14:54:05;-5.50;99.90
10431;DHT22;5262;59.958;17.726;2023-11-19T14:56:31;-5.40;99.90
10431;DHT22;5262;59.958;17.726;2023-11-19T14:58:57;-5.30;99.90
10431;DHT22;5262;59.958;17.726;2023-11-19T15:01:24;-5.30;99.90
10431;DHT22;5262;59.958;17.726;2023-11-19T15:03:50;-5.30;99.90
10431;DHT22;5262;59.958;17.726;2023-11-19T15:06:27;-5.30;99.90
10431;DHT22;5262;59.958;17.726;2023-11-19T15:08:53;-5.40;99.90
10431;DHT22;5262;59.958;17.726;2023-11-19T15:11:20;-5.30;99.90
10431;DHT22;5262;59.958;17.726;2023-11-19T15:13:46;-5.40;99.90
10431;DHT22;5262;59.958;17.726;2023-11-19T15:16:12;-5.40;99.90
10431;DHT22;5262;59.958;17.726;2023-11-19T15:18:39;-5.40;99.90
10431;DHT22;5262;59.958;17.726;2023-11-19T15:21:05;-5.40;99.90
10431;DHT22;5262;59.958;17.726;2023-11-19T15:23:31;-5.30;99.90
10431;DHT22;5262;59.958;17.726;2023-11-19T15:25:56;-5.30;99.90
10431;DHT22;5262;59.958;17.726;2023-11-19T15:28:22;-5.30;99.90
10431;DHT22;5262;59.958;17.726;2023-11-19T15:30:48;-5.30;99.90
10431;DHT22;5262;59.958;17.726;2023-11-19T15:33:14;-5.30;99.90
10431;DHT22;5262;59.958;17.726;2023-11-19T15:35:40;-5.20;99.90
10431;DHT22;5262;59.958;17.726;2023-11-19T15:38:06;-5.20;99.90
10431;DHT22;5262;59.958;17.726;2023-11-19T15:40:35;-5.20;99.90
10431;DHT22;5262;59.958;17.726;2023-11-19T15:43:01;-5.20;99.90
10431;DHT22;5262;59.958;17.726;2023-11-19T15:45:27;-5.20;99.90
10431;DHT22;5262;59.958;17.726;2023-11-19T15:47:53;-5.20;99.90
10431;DHT22;5262;59.958;17.726;2023-11-19T15:50:18;-5.30;99.90
10431;DHT22;5262;59.958;17.726;2023-11-19T15:52:44;-5.20;99.90